sensor_id;sensor_type;location;lat;lon;timestamp;pressure;altitude;pressure_sealevel;temperature;humidity
48041;BME280;33815;48.386;11.738;2022-12-24T00:02:05;95907.28;;;8.78;100.00
48041;BME280;33815;48.386;11.738;2022-12-24T00:04:31;95912.66;;;8.85;100.00
48041;BME280;33815;48.386;11.738;2022-12-24T00:06:56;95918.16;;;8.82;100.00
48041;BME280;33815;48.386;11.738;2022-12-24T00:09:21;95930.81;;;8.77;100.00
48041;BME280;33815;48.386;11.738;2022-12-24T00:11:46;95930.63;;;8.70;100.00
48041;BME280;33815;48.386;11.738;2022-12-24T00:14:12;95937.63;;;8.78;100.00
48041;BME280;33815;48.386;11.738;2022-12-24T00:16:37;95931.31;;;8.80;100.00
48041;BME280;33815;48.386;11.738;2022-12-24T00:19:02;95928.13;;;8.95;100.00
48041;BME280;33815;48.386;11.738;2022-12-24T00:21:28;95923.94;;;8.94;100.00
48041;BME280;33815;48.386;11.738;2022-12-24T00:23:53;95933.69;;;9.00;100.00
48041;BME280;33815;48.386;11.738;2022-12-24T00:26:18;95925.75;;;9.09;100.00
48041;BME280;33815;48.386;11.738;2022-12-24T00:28:43;95942.91;;;8.94;100.00
48041;BME280;33815;48.386;11.738;2022-12-24T00:31:10;95939.47;;;8.85;100.00
48041;BME280;33815;48.386;11.738;2022-12-24T00:33:36;95925.03;;;8.91;100.00
48041;BME280;33815;48.386;11.738;2022-12-24T00:36:02;95935.44;;;8.91;100.00
48041;BME280;33815;48.386;11.738;2022-12-24T00:38:27;95937.31;;;8.81;100.00
48041;BME280;33815;48.386;11.738;2022-12-24T00:40:58;95943.69;;;8.86;100.00
48041;BME280;33815;48.386;11.738;2022-12-24T00:43:24;95942.28;;;9.00;100.00
48041;BME280;33815;48.386;11.738;2022-12-24T00:45:49;95945.34;;;8.96;100.00
48041;BME280;33815;48.386;11.738;2022-12-24T00:48:14;95945.34;;;8.96;100.00
48041;BME280;33815;48.386;11.738;2022-12-24T00:50:40;95957.81;;;8.84;100.00
48041;BME280;33815;48.386;11.738;2022-12-24T00:53:05;95946.06;;;8.71;100.00
48041;BME280;33815;48.386;11.738;2022-12-24T00:55:30;95968.81;;;8.78;100.00
48041;BME280;33815;48.386;11.738;2022-12-24T00:57:56;95968.81;;;8.78;100.00
48041;BME280;33815;48.386;11.738;2022-12-24T01:00:21;95979.31;;;8.68;100.00
48041;BME280;33815;48.386;11.738;2022-12-24T01:02:46;95987.63;;;8.71;100.00
48041;BME280;33815;48.386;11.738;2022-12-24T01:05:11;95982.88;;;8.67;100.00
48041;BME280;33815;48.386;11.738;2022-12-24T01:07:42;95983.00;;;8.57;100.00
48041;BME280;33815;48.386;11.738;2022-12-24T01:10:09;95991.00;;;8.46;100.00
48041;BME280;33815;48.386;11.738;2022-12-24T01:12:35;95989.53;;;8.43;100.00
48041;BME280;33815;48.386;11.738;2022-12-24T01:15:00;96002.38;;;8.45;100.00
48041;BME280;33815;48.386;11.738;2022-12-24T01:17:26;96000.66;;;8.53;100.00
48041;BME280;33815;48.386;11.738;2022-12-24T01:19:51;95996.94;;;8.56;100.00
48041;BME280;33815;48.386;11.738;2022-12-24T01:22:16;96001.28;;;8.47;100.00
48041;BME280;33815;48.386;11.738;2022-12-24T01:24:42;96009.31;;;8.44;100.00
48041;BME280;33815;48.386;11.738;2022-12-24T01:27:07;96011.41;;;8.40;100.00
48041;BME280;33815;48.386;11.738;2022-12-24T01:29:33;96005.34;;;8.32;100.00
48041;BME280;33815;48.386;11.738;2022-12-24T01:31:58;96008.44;;;8.17;100.00
48041;BME280;33815;48.386;11.738;2022-12-24T01:34:23;96007.94;;;8.14;100.00
48041;BME280;33815;48.386;11.738;2022-12-24T01:36:49;96009.28;;;8.18;100.00
48041;BME280;33815;48.386;11.738;2022-12-24T01:39:14;96008.16;;;8.20;100.00
48041;BME280;33815;48.386;11.738;2022-12-24T01:41:39;96018.34;;;8.14;100.00
48041;BME280;33815;48.386;11.738;2022-12-24T01:44:27;96029.28;;;8.26;100.00
48041;BME280;33815;48.386;11.738;2022-12-24T01:47:10;96035.22;;;8.36;100.00
48041;BME280;33815;48.386;11.738;2022-12-24T01:49:39;96024.88;;;8.18;100.00
48041;BME280;33815;48.386;11.738;2022-12-24T01:52:12;96033.16;;;8.21;100.00
48041;BME280;33815;48.386;11.738;2022-12-24T01:54:49;96036.19;;;8.17;100.00
48041;BME280;33815;48.386;11.738;2022-12-24T01:57:23;96042.88;;;8.19;100.00
48041;BME280;33815;48.386;11.738;2022-12-24T01:59:53;96041.69;;;8.14;100.00
48041;BME280;33815;48.386;11.738;2022-12-24T02:02:20;96036.50;;;8.14;100.00
48041;BME280;33815;48.386;11.738;2022-12-24T02:07:44;96044.72;;;8.09;100.00
48041;BME280;33815;48.386;11.738;2022-12-24T02:10:12;96045.31;;;8.03;100.00
48041;BME280;33815;48.386;11.738;2022-12-24T02:12:38;96057.19;;;8.05;100.00
48041;BME280;33815;48.386;11.738;2022-12-24T02:15:06;96054.91;;;8.02;100.00
48041;BME280;33815;48.386;11.738;2022-12-24T02:31:01;96077.00;;;8.06;100.00
48041;BME280;33815;48.386;11.738;2022-12-24T02:33:34;96078.25;;;8.02;100.00
48041;BME280;33815;48.386;11.738;2022-12-24T02:38:47;96081.13;;;7.99;100.00
48041;BME280;33815;48.386;11.738;2022-12-24T02:41:26;96076.22;;;7.96;100.00
48041;BME280;33815;48.386;11.738;2022-12-24T02:44:14;96084.31;;;7.93;100.00
48041;BME280;33815;48.386;11.738;2022-12-24T02:46:40;96077.78;;;7.89;100.00
48041;BME280;33815;48.386;11.738;2022-12-24T02:49:05;96086.44;;;7.98;100.00
48041;BME280;33815;48.386;11.738;2022-12-24T02:51:31;96083.72;;;7.99;100.00
48041;BME280;33815;48.386;11.738;2022-12-24T02:53:56;96088.13;;;8.17;100.00
48041;BME280;33815;48.386;11.738;2022-12-24T02:59:31;96096.00;;;8.25;100.00
48041;BME280;33815;48.386;11.738;2022-12-24T03:02:25;96100.72;;;8.12;100.00
48041;BME280;33815;48.386;11.738;2022-12-24T03:10:33;96083.34;;;7.94;100.00
48041;BME280;33815;48.386;11.738;2022-12-24T03:13:05;96100.25;;;7.98;100.00
48041;BME280;33815;48.386;11.738;2022-12-24T03:15:32;96094.63;;;8.03;100.00
48041;BME280;33815;48.386;11.738;2022-12-24T03:18:01;96097.06;;;8.04;100.00
48041;BME280;33815;48.386;11.738;2022-12-24T03:21:05;96113.19;;;8.08;100.00
48041;BME280;33815;48.386;11.738;2022-12-24T03:23:27;96112.34;;;8.07;100.00
48041;BME280;33815;48.386;11.738;2022-12-24T03:25:52;96116.81;;;8.15;100.00
48041;BME280;33815;48.386;11.738;2022-12-24T03:28:19;96120.81;;;8.10;100.00
48041;BME280;33815;48.386;11.738;2022-12-24T03:30:48;96119.88;;;8.01;100.00
48041;BME280;33815;48.386;11.738;2022-12-24T03:33:14;96132.34;;;7.97;100.00
48041;BME280;33815;48.386;11.738;2022-12-24T03:35:40;96138.50;;;7.96;100.00
48041;BME280;33815;48.386;11.738;2022-12-24T03:38:05;96135.81;;;7.88;100.00
48041;BME280;33815;48.386;11.738;2022-12-24T03:40:31;96147.28;;;8.13;100.00
48041;BME280;33815;48.386;11.738;2022-12-24T03:42:56;96147.28;;;8.13;100.00
48041;BME280;33815;48.386;11.738;2022-12-24T03:45:22;96145.47;;;8.23;100.00
48041;BME280;33815;48.386;11.738;2022-12-24T03:47:47;96142.47;;;8.18;100.00
48041;BME280;33815;48.386;11.738;2022-12-24T03:50:13;96144.88;;;8.30;100.00
48041;BME280;33815;48.386;11.738;2022-12-24T03:52:38;96144.22;;;8.28;100.00
48041;BME280;33815;48.386;11.738;2022-12-24T03:55:04;96140.88;;;8.35;100.00
48041;BME280;33815;48.386;11.738;2022-12-24T03:57:29;96140.22;;;8.33;100.00
48041;BME280;33815;48.386;11.738;2022-12-24T03:59:54;96141.25;;;8.40;100.00
48041;BME280;33815;48.386;11.738;2022-12-24T04:02:19;96143.91;;;8.31;100.00
48041;BME280;33815;48.386;11.738;2022-12-24T04:04:45;96154.16;;;8.32;100.00
48041;BME280;33815;48.386;11.738;2022-12-24T04:07:10;96166.53;;;8.38;100.00
48041;BME280;33815;48.386;11.738;2022-12-24T04:09:35;96161.88;;;8.42;100.00
48041;BME280;33815;48.386;11.738;2022-12-24T04:12:01;96161.72;;;8.44;100.00
48041;BME280;33815;48.386;11.738;2022-12-24T04:14:26;96166.50;;;8.48;100.00
48041;BME280;33815;48.386;11.738;2022-12-24T04:16:52;96165.56;;;8.39;100.00
48041;BME280;33815;48.386;11.738;2022-12-24T04:19:17;96177.59;;;8.40;100.00
48041;BME280;33815;48.386;11.738;2022-12-24T04:21:42;96175.13;;;8.49;100.00
48041;BME280;33815;48.386;11.738;2022-12-24T04:24:07;96180.88;;;8.43;100.00
48041;BME280;33815;48.386;11.738;2022-12-24T04:26:33;96188.50;;;8.44;100.00
48041;BME280;33815;48.386;11.738;2022-12-24T04:28:58;96187.59;;;8.45;100.00
48041;BME280;33815;48.386;11.738;2022-12-24T04:31:23;96194.25;;;8.48;100.00
48041;BME280;33815;48.386;11.738;2022-12-24T04:33:50;96197.16;;;8.45;100.00
48041;BME280;33815;48.386;11.738;2022-12-24T04:36:16;96206.19;;;8.40;100.00
48041;BME280;33815;48.386;11.738;2022-12-24T04:38:42;96208.78;;;8.40;100.00
48041;BME280;33815;48.386;11.738;2022-12-24T04:41:13;96208.47;;;8.44;100.00
48041;BME280;33815;48.386;11.738;2022-12-24T04:43:39;96209.88;;;8.38;100.00
48041;BME280;33815;48.386;11.738;2022-12-24T04:46:06;96213.19;;;8.30;100.00
48041;BME280;33815;48.386;11.738;2022-12-24T04:48:32;96217.47;;;8.21;100.00
48041;BME280;33815;48.386;11.738;2022-12-24T04:51:00;96221.16;;;8.19;100.00
48041;BME280;33815;48.386;11.738;2022-12-24T04:53:26;96244.16;;;8.14;100.00
48041;BME280;33815;48.386;11.738;2022-12-24T04:55:51;96232.00;;;8.14;100.00
48041;BME280;33815;48.386;11.738;2022-12-24T04:58:16;96249.47;;;8.22;100.00
48041;BME280;33815;48.386;11.738;2022-12-24T05:00:42;96253.72;;;8.13;100.00
48041;BME280;33815;48.386;11.738;2022-12-24T05:03:07;96249.53;;;8.02;100.00
48041;BME280;33815;48.386;11.738;2022-12-24T05:05:32;96267.59;;;7.94;100.00
48041;BME280;33815;48.386;11.738;2022-12-24T05:07:57;96265.72;;;7.77;100.00
48041;BME280;33815;48.386;11.738;2022-12-24T05:10:23;96280.75;;;7.73;100.00
48041;BME280;33815;48.386;11.738;2022-12-24T05:12:48;96269.31;;;7.56;100.00
48041;BME280;33815;48.386;11.738;2022-12-24T05:15:13;96260.19;;;7.42;100.00
48041;BME280;33815;48.386;11.738;2022-12-24T05:17:38;96267.28;;;7.40;100.00
48041;BME280;33815;48.386;11.738;2022-12-24T05:20:04;96252.81;;;7.28;100.00
48041;BME280;33815;48.386;11.738;2022-12-24T05:22:30;96252.16;;;7.16;100.00
48041;BME280;33815;48.386;11.738;2022-12-24T05:25:13;96249.84;;;7.13;100.00
48041;BME280;33815;48.386;11.738;2022-12-24T05:27:57;96249.97;;;7.01;100.00
48041;BME280;33815;48.386;11.738;2022-12-24T05:30:23;96246.41;;;7.02;100.00
48041;BME280;33815;48.386;11.738;2022-12-24T05:32:48;96242.34;;;7.00;100.00
48041;BME280;33815;48.386;11.738;2022-12-24T05:35:13;96248.34;;;7.00;100.00
48041;BME280;33815;48.386;11.738;2022-12-24T05:37:38;96262.66;;;6.95;100.00
48041;BME280;33815;48.386;11.738;2022-12-24T05:40:04;96264.31;;;6.96;100.00
48041;BME280;33815;48.386;11.738;2022-12-24T05:42:30;96289.00;;;7.00;100.00
48041;BME280;33815;48.386;11.738;2022-12-24T05:44:55;96327.84;;;7.10;100.00
48041;BME280;33815;48.386;11.738;2022-12-24T05:47:20;96329.06;;;6.86;100.00
48041;BME280;33815;48.386;11.738;2022-12-24T05:49:45;96311.38;;;6.60;100.00
48041;BME280;33815;48.386;11.738;2022-12-24T05:52:10;96296.50;;;6.43;100.00
48041;BME280;33815;48.386;11.738;2022-12-24T05:54:36;96303.56;;;6.41;100.00
48041;BME280;33815;48.386;11.738;2022-12-24T05:57:01;96294.03;;;6.41;100.00
48041;BME280;33815;48.386;11.738;2022-12-24T05:59:27;96294.44;;;6.46;100.00
48041;BME280;33815;48.386;11.738;2022-12-24T06:01:52;96287.34;;;6.39;100.00
48041;BME280;33815;48.386;11.738;2022-12-24T06:04:17;96305.34;;;6.40;100.00
48041;BME280;33815;48.386;11.738;2022-12-24T06:06:43;96295.38;;;6.36;100.00
48041;BME280;33815;48.386;11.738;2022-12-24T06:09:08;96304.75;;;6.37;100.00
48041;BME280;33815;48.386;11.738;2022-12-24T06:11:34;96287.44;;;6.27;100.00
48041;BME280;33815;48.386;11.738;2022-12-24T06:13:59;96305.78;;;6.45;100.00
48041;BME280;33815;48.386;11.738;2022-12-24T06:16:25;96319.34;;;6.38;100.00
48041;BME280;33815;48.386;11.738;2022-12-24T06:18:50;96317.47;;;6.40;100.00
48041;BME280;33815;48.386;11.738;2022-12-24T06:21:16;96308.19;;;6.37;100.00
48041;BME280;33815;48.386;11.738;2022-12-24T06:23:43;96309.13;;;6.36;100.00
48041;BME280;33815;48.386;11.738;2022-12-24T06:26:11;96307.88;;;6.30;100.00
48041;BME280;33815;48.386;11.738;2022-12-24T06:28:37;96297.13;;;6.35;100.00
48041;BME280;33815;48.386;11.738;2022-12-24T06:31:04;96302.56;;;6.32;100.00
48041;BME280;33815;48.386;11.738;2022-12-24T06:33:30;96309.41;;;6.33;100.00
48041;BME280;33815;48.386;11.738;2022-12-24T06:35:56;96302.31;;;6.35;100.00
48041;BME280;33815;48.386;11.738;2022-12-24T06:38:21;96301.31;;;6.26;100.00
48041;BME280;33815;48.386;11.738;2022-12-24T06:40:46;96313.31;;;6.27;100.00
48041;BME280;33815;48.386;11.738;2022-12-24T06:43:13;96301.16;;;6.18;100.00
48041;BME280;33815;48.386;11.738;2022-12-24T06:45:39;96315.31;;;6.14;100.00
48041;BME280;33815;48.386;11.738;2022-12-24T06:48:05;96326.97;;;6.08;100.00
48041;BME280;33815;48.386;11.738;2022-12-24T06:50:32;96330.78;;;6.04;100.00
48041;BME280;33815;48.386;11.738;2022-12-24T06:52:57;96326.00;;;5.99;100.00
48041;BME280;33815;48.386;11.738;2022-12-24T06:55:23;96337.28;;;5.98;100.00
48041;BME280;33815;48.386;11.738;2022-12-24T06:57:48;96336.94;;;5.92;100.00
48041;BME280;33815;48.386;11.738;2022-12-24T07:00:13;96337.06;;;5.90;100.00
48041;BME280;33815;48.386;11.738;2022-12-24T07:02:40;96344.41;;;5.85;100.00
48041;BME280;33815;48.386;11.738;2022-12-24T07:05:06;96345.03;;;5.98;100.00
48041;BME280;33815;48.386;11.738;2022-12-24T07:07:31;96349.50;;;5.96;100.00
48041;BME280;33815;48.386;11.738;2022-12-24T07:09:57;96352.44;;;5.92;100.00
48041;BME280;33815;48.386;11.738;2022-12-24T07:12:22;96352.59;;;5.90;100.00
48041;BME280;33815;48.386;11.738;2022-12-24T07:14:47;96346.72;;;5.88;100.00
48041;BME280;33815;48.386;11.738;2022-12-24T07:17:12;96344.41;;;5.85;100.00
48041;BME280;33815;48.386;11.738;2022-12-24T07:19:37;96349.69;;;5.83;100.00
48041;BME280;33815;48.386;11.738;2022-12-24T07:22:03;96354.28;;;5.80;100.00
48041;BME280;33815;48.386;11.738;2022-12-24T07:24:28;96355.38;;;5.77;100.00
48041;BME280;33815;48.386;11.738;2022-12-24T07:26:53;96368.41;;;5.76;100.00
48041;BME280;33815;48.386;11.738;2022-12-24T07:29:19;96377.75;;;5.88;100.00
48041;BME280;33815;48.386;11.738;2022-12-24T07:31:44;96381.69;;;5.82;100.00
48041;BME280;33815;48.386;11.738;2022-12-24T07:34:09;96381.81;;;5.81;100.00
48041;BME280;33815;48.386;11.738;2022-12-24T07:36:35;96383.94;;;5.76;100.00
48041;BME280;33815;48.386;11.738;2022-12-24T07:39:00;96387.03;;;5.70;100.00
48041;BME280;33815;48.386;11.738;2022-12-24T07:41:25;96383.72;;;5.68;100.00
48041;BME280;33815;48.386;11.738;2022-12-24T07:43:50;96395.72;;;5.69;100.00
48041;BME280;33815;48.386;11.738;2022-12-24T07:46:16;96402.09;;;5.64;100.00
48041;BME280;33815;48.386;11.738;2022-12-24T07:48:41;96413.03;;;5.68;100.00
48041;BME280;33815;48.386;11.738;2022-12-24T07:51:06;96408.03;;;5.76;100.00
48041;BME280;33815;48.386;11.738;2022-12-24T07:53:32;96392.19;;;5.70;100.00
48041;BME280;33815;48.386;11.738;2022-12-24T07:55:57;96410.06;;;5.73;100.00
48041;BME280;33815;48.386;11.738;2022-12-24T07:58:23;96413.94;;;5.67;100.00
48041;BME280;33815;48.386;11.738;2022-12-24T08:00:48;96409.97;;;5.63;100.00
48041;BME280;33815;48.386;11.738;2022-12-24T08:03:20;96425.28;;;5.55;100.00
48041;BME280;33815;48.386;11.738;2022-12-24T08:05:46;96429.84;;;5.51;100.00
48041;BME280;33815;48.386;11.738;2022-12-24T08:08:12;96432.09;;;5.56;100.00
48041;BME280;33815;48.386;11.738;2022-12-24T08:10:38;96434.75;;;5.65;100.00
48041;BME280;33815;48.386;11.738;2022-12-24T08:13:04;96431.50;;;5.84;100.00
48041;BME280;33815;48.386;11.738;2022-12-24T08:15:29;96434.47;;;6.12;100.00
48041;BME280;33815;48.386;11.738;2022-12-24T08:17:54;96434.59;;;6.32;100.00
48041;BME280;33815;48.386;11.738;2022-12-24T08:20:20;96439.06;;;6.51;100.00
48041;BME280;33815;48.386;11.738;2022-12-24T08:22:45;96429.88;;;6.68;100.00
48041;BME280;33815;48.386;11.738;2022-12-24T08:25:10;96434.28;;;6.87;100.00
48041;BME280;33815;48.386;11.738;2022-12-24T08:27:35;96428.22;;;6.98;100.00
48041;BME280;33815;48.386;11.738;2022-12-24T08:30:02;96444.22;;;7.13;100.00
48041;BME280;33815;48.386;11.738;2022-12-24T08:32:27;96448.84;;;7.09;100.00
48041;BME280;33815;48.386;11.738;2022-12-24T08:34:52;96448.47;;;7.24;100.00
48041;BME280;33815;48.386;11.738;2022-12-24T08:37:18;96457.22;;;7.23;100.00
48041;BME280;33815;48.386;11.738;2022-12-24T08:39:43;96455.91;;;7.48;100.00
48041;BME280;33815;48.386;11.738;2022-12-24T08:42:09;96458.88;;;7.43;100.00
48041;BME280;33815;48.386;11.738;2022-12-24T08:44:34;96460.84;;;7.61;100.00
48041;BME280;33815;48.386;11.738;2022-12-24T08:46:59;96453.59;;;7.74;100.00
48041;BME280;33815;48.386;11.738;2022-12-24T08:49:24;96452.78;;;7.74;100.00
48041;BME280;33815;48.386;11.738;2022-12-24T08:51:50;96463.03;;;7.85;100.00
48041;BME280;33815;48.386;11.738;2022-12-24T08:54:16;96462.09;;;7.86;100.00
48041;BME280;33815;48.386;11.738;2022-12-24T08:56:42;96462.09;;;7.86;100.00
48041;BME280;33815;48.386;11.738;2022-12-24T08:59:07;96482.00;;;7.95;100.00
48041;BME280;33815;48.386;11.738;2022-12-24T09:01:32;96481.06;;;8.06;100.00
48041;BME280;33815;48.386;11.738;2022-12-24T09:04:00;96475.59;;;8.09;100.00
48041;BME280;33815;48.386;11.738;2022-12-24T09:06:25;96476.00;;;8.04;100.00
48041;BME280;33815;48.386;11.738;2022-12-24T09:08:51;96472.19;;;8.09;100.00
48041;BME280;33815;48.386;11.738;2022-12-24T09:11:17;96483.00;;;8.14;100.00
48041;BME280;33815;48.386;11.738;2022-12-24T09:13:42;96482.13;;;8.23;100.00
48041;BME280;33815;48.386;11.738;2022-12-24T09:16:09;96477.09;;;8.12;100.00
48041;BME280;33815;48.386;11.738;2022-12-24T09:18:34;96486.81;;;8.29;100.00
48041;BME280;33815;48.386;11.738;2022-12-24T09:21:05;96506.88;;;8.17;100.00
48041;BME280;33815;48.386;11.738;2022-12-24T09:23:34;96499.09;;;8.17;100.00
48041;BME280;33815;48.386;11.738;2022-12-24T09:25:59;96510.19;;;8.19;100.00
48041;BME280;33815;48.386;11.738;2022-12-24T09:28:24;96506.88;;;8.17;100.00
48041;BME280;33815;48.386;11.738;2022-12-24T09:30:57;96505.22;;;8.16;100.00
48041;BME280;33815;48.386;11.738;2022-12-24T09:33:24;96522.59;;;8.35;100.00
48041;BME280;33815;48.386;11.738;2022-12-24T09:35:51;96522.88;;;8.32;100.00
48041;BME280;33815;48.386;11.738;2022-12-24T09:38:17;96520.72;;;8.47;100.00
48041;BME280;33815;48.386;11.738;2022-12-24T09:40:43;96518.63;;;8.41;100.00
48041;BME280;33815;48.386;11.738;2022-12-24T09:43:14;96511.41;;;8.45;100.00
48041;BME280;33815;48.386;11.738;2022-12-24T09:46:04;96514.25;;;8.41;100.00
48041;BME280;33815;48.386;11.738;2022-12-24T09:48:34;96517.28;;;8.47;100.00
48041;BME280;33815;48.386;11.738;2022-12-24T09:51:07;96509.03;;;8.41;100.00
48041;BME280;33815;48.386;11.738;2022-12-24T09:53:42;96505.34;;;8.44;100.00
48041;BME280;33815;48.386;11.738;2022-12-24T09:56:16;96514.53;;;8.48;100.00
48041;BME280;33815;48.386;11.738;2022-12-24T09:58:46;96517.13;;;8.38;100.00
48041;BME280;33815;48.386;11.738;2022-12-24T10:01:15;96494.31;;;8.42;100.00
48041;BME280;33815;48.386;11.738;2022-12-24T10:03:41;96509.34;;;8.48;100.00
48041;BME280;33815;48.386;11.738;2022-12-24T10:06:19;96513.16;;;8.54;100.00
48041;BME280;33815;48.386;11.738;2022-12-24T10:14:30;96521.91;;;8.43;100.00
48041;BME280;33815;48.386;11.738;2022-12-24T10:17:16;96507.16;;;8.24;100.00
48041;BME280;33815;48.386;11.738;2022-12-24T10:22:55;96532.19;;;8.25;100.00
48041;BME280;33815;48.386;11.738;2022-12-24T10:28:01;96527.50;;;8.38;100.00
48041;BME280;33815;48.386;11.738;2022-12-24T10:30:27;96538.19;;;8.35;100.00
48041;BME280;33815;48.386;11.738;2022-12-24T10:32:53;96541.22;;;8.60;100.00
48041;BME280;33815;48.386;11.738;2022-12-24T10:35:22;96549.25;;;8.67;100.00
48041;BME280;33815;48.386;11.738;2022-12-24T10:37:50;96541.59;;;8.65;100.00
48041;BME280;33815;48.386;11.738;2022-12-24T10:42:53;96547.59;;;8.76;100.00
48041;BME280;33815;48.386;11.738;2022-12-24T10:45:21;96536.94;;;8.79;100.00
48041;BME280;33815;48.386;11.738;2022-12-24T10:47:49;96536.94;;;8.79;100.00
48041;BME280;33815;48.386;11.738;2022-12-24T10:50:31;96540.19;;;8.81;100.00
48041;BME280;33815;48.386;11.738;2022-12-24T10:53:06;96540.31;;;8.89;100.00
48041;BME280;33815;48.386;11.738;2022-12-24T10:55:37;96553.88;;;8.93;100.00
48041;BME280;33815;48.386;11.738;2022-12-24T10:58:12;96548.13;;;8.89;100.00
48041;BME280;33815;48.386;11.738;2022-12-24T11:00:39;96545.09;;;9.03;100.00
48041;BME280;33815;48.386;11.738;2022-12-24T11:05:37;96556.72;;;8.99;100.00
48041;BME280;33815;48.386;11.738;2022-12-24T11:08:16;96545.09;;;9.03;100.00
48041;BME280;33815;48.386;11.738;2022-12-24T11:11:10;96536.84;;;9.08;100.00
48041;BME280;33815;48.386;11.738;2022-12-24T11:13:40;96535.47;;;9.14;100.00
48041;BME280;33815;48.386;11.738;2022-12-24T11:18:43;96533.28;;;9.19;100.00
48041;BME280;33815;48.386;11.738;2022-12-24T11:21:09;96539.72;;;9.15;100.00
48041;BME280;33815;48.386;11.738;2022-12-24T11:23:34;96535.47;;;9.14;100.00
48041;BME280;33815;48.386;11.738;2022-12-24T11:26:00;96535.88;;;9.19;100.00
48041;BME280;33815;48.386;11.738;2022-12-24T11:28:28;96534.47;;;9.24;100.00
48041;BME280;33815;48.386;11.738;2022-12-24T11:33:24;96531.53;;;9.37;99.86
48041;BME280;33815;48.386;11.738;2022-12-24T11:36:05;96537.22;;;9.51;100.00
48041;BME280;33815;48.386;11.738;2022-12-24T11:38:33;96539.88;;;9.69;100.00
48041;BME280;33815;48.386;11.738;2022-12-24T11:41:01;96527.69;;;9.69;100.00
48041;BME280;33815;48.386;11.738;2022-12-24T11:43:40;96537.66;;;9.74;99.08
48041;BME280;33815;48.386;11.738;2022-12-24T11:46:20;96525.44;;;9.74;98.09
48041;BME280;33815;48.386;11.738;2022-12-24T11:48:47;96534.75;;;9.77;99.81
48041;BME280;33815;48.386;11.738;2022-12-24T11:51:24;96529.56;;;9.77;98.13
48041;BME280;33815;48.386;11.738;2022-12-24T11:54:21;96528.41;;;9.62;96.83
48041;BME280;33815;48.386;11.738;2022-12-24T11:56:53;96530.97;;;9.43;97.62
48041;BME280;33815;48.386;11.738;2022-12-24T11:59:35;96525.53;;;9.27;100.00
48041;BME280;33815;48.386;11.738;2022-12-24T12:02:31;96522.94;;;9.27;100.00
48041;BME280;33815;48.386;11.738;2022-12-24T12:05:10;96523.75;;;9.37;100.00
48041;BME280;33815;48.386;11.738;2022-12-24T12:07:37;96522.28;;;9.53;100.00
48041;BME280;33815;48.386;11.738;2022-12-24T12:12:35;96522.16;;;9.54;99.10
48041;BME280;33815;48.386;11.738;2022-12-24T12:15:11;96526.59;;;9.44;96.99
48041;BME280;33815;48.386;11.738;2022-12-24T12:18:02;96523.09;;;9.53;98.47
48041;BME280;33815;48.386;11.738;2022-12-24T12:20:37;96528.94;;;9.37;98.77
48041;BME280;33815;48.386;11.738;2022-12-24T12:23:22;96540.31;;;9.36;97.63
48041;BME280;33815;48.386;11.738;2022-12-24T12:26:06;96530.63;;;9.29;99.23
48041;BME280;33815;48.386;11.738;2022-12-24T12:28:36;96534.69;;;9.31;100.00
48041;BME280;33815;48.386;11.738;2022-12-24T12:33:40;96542.66;;;9.30;100.00
48041;BME280;33815;48.386;11.738;2022-12-24T12:36:09;96555.38;;;9.33;100.00
48041;BME280;33815;48.386;11.738;2022-12-24T12:38:36;96535.03;;;9.18;99.18
48041;BME280;33815;48.386;11.738;2022-12-24T12:44:15;96551.19;;;9.22;100.00
48041;BME280;33815;48.386;11.738;2022-12-24T12:52:50;96549.09;;;9.25;100.00
48041;BME280;33815;48.386;11.738;2022-12-24T12:58:23;96556.69;;;9.09;100.00
48041;BME280;33815;48.386;11.738;2022-12-24T13:00:51;96524.31;;;8.94;100.00
48041;BME280;33815;48.386;11.738;2022-12-24T13:09:21;96536.53;;;8.73;100.00
48041;BME280;33815;48.386;11.738;2022-12-24T13:14:55;96550.59;;;8.81;100.00
48041;BME280;33815;48.386;11.738;2022-12-24T13:20:23;96557.16;;;8.75;100.00
48041;BME280;33815;48.386;11.738;2022-12-24T13:22:56;96561.41;;;8.76;100.00
48041;BME280;33815;48.386;11.738;2022-12-24T13:25:29;96565.38;;;8.80;100.00
48041;BME280;33815;48.386;11.738;2022-12-24T13:27:55;96571.38;;;8.71;100.00
48041;BME280;33815;48.386;11.738;2022-12-24T13:30:38;96589.34;;;8.54;100.00
48041;BME280;33815;48.386;11.738;2022-12-24T13:33:04;96591.66;;;8.48;100.00
48041;BME280;33815;48.386;11.738;2022-12-24T13:35:34;96589.06;;;8.48;100.00
48041;BME280;33815;48.386;11.738;2022-12-24T13:40:53;96601.63;;;8.62;100.00
48041;BME280;33815;48.386;11.738;2022-12-24T13:43:19;96603.78;;;8.86;100.00
48041;BME280;33815;48.386;11.738;2022-12-24T13:45:47;96599.56;;;8.95;100.00
48041;BME280;33815;48.386;11.738;2022-12-24T13:48:28;96609.53;;;9.00;100.00
48041;BME280;33815;48.386;11.738;2022-12-24T13:51:17;96607.50;;;8.94;100.00
48041;BME280;33815;48.386;11.738;2022-12-24T13:53:46;96604.22;;;8.82;100.00
48041;BME280;33815;48.386;11.738;2022-12-24T13:58:43;96600.13;;;8.60;100.00
48041;BME280;33815;48.386;11.738;2022-12-24T14:01:18;96603.28;;;8.63;100.00
48041;BME280;33815;48.386;11.738;2022-12-24T14:03:54;96594.69;;;8.53;100.00
48041;BME280;33815;48.386;11.738;2022-12-24T14:06:26;96593.44;;;8.47;100.00
48041;BME280;33815;48.386;11.738;2022-12-24T14:08:56;96531.06;;;7.98;100.00
48041;BME280;33815;48.386;11.738;2022-12-24T14:11:24;96598.03;;;8.34;100.00
48041;BME280;33815;48.386;11.738;2022-12-24T14:16:27;96602.56;;;8.32;100.00
48041;BME280;33815;48.386;11.738;2022-12-24T14:19:12;96606.78;;;8.33;100.00
48041;BME280;33815;48.386;11.738;2022-12-24T14:21:49;96609.09;;;8.36;100.00
48041;BME280;33815;48.386;11.738;2022-12-24T14:24:19;96609.66;;;8.30;100.00